| Date | Time | Temp. (oF) | Dew Point (oF) | Rel. Hum. (%) | Press. (in.) | Wind Dir. | Wind Speed (mph) | Hourly Rainfall (in.) |
|
|---|---|---|---|---|---|---|---|---|---|
| 1 | 12/02 | 00:00 | 33 | 16 | 51 | 30.13 | SW | 3 | 0.00 |
| 2 | 12/01 | 23:00 | 33 | 17 | 52 | 30.14 | SSW | 5 | 0.00 |
| 3 | 12/01 | 22:00 | 33 | 17 | 53 | 30.15 | SSW | 6 | 0.00 |
| 4 | 12/01 | 21:00 | 34 | 17 | 51 | 30.16 | WNW | 7 | 0.00 |
| 5 | 12/01 | 20:00 | 35 | 18 | 51 | 30.16 | W | 3 | 0.00 |
| 6 | 12/01 | 19:00 | 36 | 20 | 53 | 30.15 | WNW | 10 | 0.00 |
| 7 | 12/01 | 18:00 | 37 | 21 | 54 | 30.12 | WNW | 12 | 0.00 |
| 8 | 12/01 | 17:00 | 38 | 24 | 57 | 30.08 | NW | 13 | 0.00 |
| 9 | 12/01 | 16:00 | 41 | 21 | 46 | 30.03 | W | 11 | 0.00 |
| 10 | 12/01 | 15:00 | 43 | 25 | 49 | 29.98 | NNW | 18 | 0.00 |
| 11 | 12/01 | 14:00 | 44 | 27 | 52 | 29.94 | WNW | 22 | 0.00 |
| 12 | 12/01 | 13:00 | 48 | 25 | 42 | 29.91 | WNW | 13 | 0.00 |
| 13 | 12/01 | 12:00 | 49 | 27 | 43 | 29.91 | W | 10 | 0.00 |
| 14 | 12/01 | 11:00 | 48 | 26 | 43 | 29.92 | WNW | 18 | 0.00 |
| 15 | 12/01 | 10:00 | 49 | 30 | 48 | 29.90 | W | 19 | 0.00 |
| 16 | 12/01 | 09:00 | 48 | 33 | 58 | 29.88 | WSW | 6 | 0.00 |
| 17 | 12/01 | 08:00 | 48 | 34 | 59 | 29.84 | W | 7 | 0.00 |
| 18 | 12/01 | 07:00 | 47 | 33 | 59 | 29.83 | WSW | 10 | 0.00 |
| 19 | 12/01 | 06:00 | 47 | 33 | 59 | 29.82 | WSW | 4 | 0.00 |
| 20 | 12/01 | 05:00 | 48 | 33 | 56 | 29.81 | SSW | 7 | 0.00 |
| 21 | 12/01 | 04:00 | 44 | 30 | 60 | 29.80 | S | 0 | 0.00 |
| 22 | 12/01 | 03:00 | 45 | 31 | 58 | 29.81 | SSW | 6 | 0.00 |
| 23 | 12/01 | 02:00 | 43 | 31 | 63 | 29.81 | S | 3 | 0.00 |
| 24 | 12/01 | 01:00 | 39 | 31 | 73 | 29.82 | SSW | 2 | 0.00 |